createdAt,value
2022-08-14T00:00:59.187Z,20.17
2022-08-14T00:01:59.324Z,20.12
2022-08-14T00:02:59.159Z,20.18
2022-08-14T00:03:59.137Z,20.14
2022-08-14T00:04:59.129Z,20.11
2022-08-14T00:06:00.197Z,20.12
2022-08-14T00:06:59.115Z,20.17
2022-08-14T00:07:59.094Z,20.11
2022-08-14T00:08:59.574Z,20.14
2022-08-14T00:10:49.129Z,20.15
2022-08-14T00:11:00.056Z,20.12
2022-08-14T00:11:59.094Z,20.14
2022-08-14T00:12:59.168Z,20.11
2022-08-14T00:13:59.048Z,20.09
2022-08-14T00:14:59.082Z,20.08
2022-08-14T00:15:59.009Z,19.97
2022-08-14T00:16:59.046Z,19.94
2022-08-14T00:17:58.991Z,19.96
2022-08-14T00:19:06.113Z,19.93
2022-08-14T00:19:59.967Z,19.97
2022-08-14T00:20:59.038Z,19.92
2022-08-14T00:21:59.002Z,19.93
2022-08-14T00:22:58.945Z,19.93
2022-08-14T00:24:01.708Z,19.97
2022-08-14T00:24:58.988Z,20.04
2022-08-14T00:26:06.698Z,20.04
2022-08-14T00:27:02.092Z,20.02
2022-08-14T00:27:58.903Z,19.92
2022-08-14T00:28:58.888Z,20.00
2022-08-14T00:29:58.937Z,19.99
2022-08-14T00:30:58.867Z,19.96
2022-08-14T00:31:58.872Z,19.93
2022-08-14T00:32:58.887Z,19.96
2022-08-14T00:33:58.913Z,19.92
2022-08-14T00:34:59.848Z,19.86
2022-08-14T00:36:37.264Z,19.81
2022-08-14T00:36:59.805Z,19.81
2022-08-14T00:37:58.795Z,19.75
2022-08-14T00:38:58.812Z,19.75
2022-08-14T00:39:58.816Z,19.81
2022-08-14T00:40:58.758Z,19.68
2022-08-14T00:41:58.799Z,19.74
2022-08-14T00:42:58.774Z,19.74
2022-08-14T00:43:58.726Z,19.77
2022-08-14T00:44:58.757Z,19.75
2022-08-14T00:45:58.718Z,19.78
2022-08-14T00:46:58.938Z,19.77
2022-08-14T00:47:59.816Z,19.70
2022-08-14T00:48:58.685Z,19.71
2022-08-14T00:49:58.694Z,19.70
2022-08-14T00:50:58.689Z,19.78
2022-08-14T00:51:58.643Z,19.84
2022-08-14T00:52:58.643Z,19.75
2022-08-14T00:53:58.627Z,19.82
2022-08-14T00:54:58.655Z,19.89
2022-08-14T00:55:58.604Z,19.77
2022-08-14T00:56:58.598Z,19.92
2022-08-14T00:57:58.573Z,19.87
2022-08-14T00:58:58.585Z,19.93
2022-08-14T00:59:58.541Z,19.99
2022-08-14T01:00:58.635Z,20.04
2022-08-14T01:01:58.723Z,19.96
2022-08-14T01:02:58.808Z,20.09
2022-08-14T01:03:58.526Z,19.94
2022-08-14T01:04:58.533Z,20.14
2022-08-14T01:05:58.519Z,20.00
2022-08-14T01:06:58.529Z,20.12
2022-08-14T01:07:58.485Z,20.09
2022-08-14T01:08:59.515Z,20.12
2022-08-14T01:09:58.446Z,20.12
2022-08-14T01:10:58.488Z,20.02
2022-08-14T01:12:03.141Z,20.07
2022-08-14T01:12:59.556Z,20.05
2022-08-14T01:14:01.386Z,19.94
2022-08-14T01:14:59.535Z,19.97
2022-08-14T01:16:02.764Z,19.93
2022-08-14T01:16:58.365Z,19.99
2022-08-14T01:17:58.366Z,19.86
2022-08-14T01:19:02.122Z,19.89
2022-08-14T01:19:58.336Z,19.84
2022-08-14T01:20:58.341Z,19.89
2022-08-14T01:21:58.312Z,19.78
2022-08-14T01:22:58.319Z,19.79
2022-08-14T01:23:58.297Z,19.77
2022-08-14T01:24:58.304Z,19.72
2022-08-14T01:25:58.290Z,19.68
2022-08-14T01:26:58.259Z,19.71
2022-08-14T01:27:58.260Z,19.70
2022-08-14T01:28:58.244Z,19.77
2022-08-14T01:30:03.610Z,19.64
2022-08-14T01:30:59.231Z,19.57
2022-08-14T01:31:58.219Z,19.59
2022-08-14T01:32:58.204Z,19.57
2022-08-14T01:34:00.472Z,19.60
2022-08-14T01:35:18.699Z,19.59
2022-08-14T01:36:04.985Z,19.52
2022-08-14T01:36:59.167Z,19.59
2022-08-14T01:37:58.156Z,19.60
2022-08-14T01:38:58.433Z,19.59
2022-08-14T01:39:58.180Z,19.54
2022-08-14T01:40:58.113Z,19.52
2022-08-14T01:41:58.560Z,19.37
2022-08-14T01:42:58.091Z,19.41
2022-08-14T01:43:58.110Z,19.53
2022-08-14T01:44:58.093Z,19.53
2022-08-14T01:46:06.279Z,19.52
2022-08-14T01:47:01.239Z,19.54
2022-08-14T01:48:03.546Z,19.53
2022-08-14T01:48:59.035Z,19.45
2022-08-14T01:49:59.677Z,19.41
2022-08-14T01:50:58.026Z,19.32
2022-08-14T01:51:58.010Z,19.31
2022-08-14T01:53:00.508Z,19.32
2022-08-14T01:53:57.974Z,19.24
2022-08-14T01:54:58.615Z,19.22
2022-08-14T01:55:57.991Z,19.22
2022-08-14T01:56:57.949Z,19.32
2022-08-14T01:58:01.406Z,19.15
2022-08-14T01:58:58.941Z,19.23
2022-08-14T01:59:57.915Z,19.17
2022-08-14T02:00:57.909Z,19.22
2022-08-14T02:01:59.303Z,19.09
2022-08-14T02:02:57.892Z,19.20
2022-08-14T02:03:57.886Z,19.09
2022-08-14T02:04:57.964Z,19.15
2022-08-14T02:05:57.851Z,19.19
2022-08-14T02:06:57.839Z,19.20
2022-08-14T02:08:09.471Z,19.20
2022-08-14T02:08:58.822Z,19.16
2022-08-14T02:09:57.807Z,19.19
2022-08-14T02:10:57.798Z,19.20
2022-08-14T02:11:57.790Z,19.15
2022-08-14T02:12:59.448Z,19.16
2022-08-14T02:13:57.787Z,19.08
2022-08-14T02:15:00.577Z,19.13
2022-08-14T02:15:57.741Z,19.15
2022-08-14T02:16:57.736Z,19.17
2022-08-14T02:17:57.727Z,19.17
2022-08-14T02:18:58.091Z,19.22
2022-08-14T02:19:57.721Z,19.15
2022-08-14T02:20:57.695Z,19.17
2022-08-14T02:21:57.684Z,19.15
2022-08-14T02:22:58.669Z,19.23
2022-08-14T02:23:57.658Z,19.52
2022-08-14T02:24:57.662Z,19.49
2022-08-14T02:25:57.665Z,19.45
2022-08-14T02:28:19.002Z,19.39
2022-08-14T02:28:21.991Z,19.35
2022-08-14T02:28:59.723Z,19.30
2022-08-14T02:30:00.816Z,19.32
2022-08-14T02:30:57.607Z,19.32
2022-08-14T02:31:57.607Z,19.38
2022-08-14T02:32:57.562Z,19.35
2022-08-14T02:33:57.550Z,19.41
2022-08-14T02:34:57.547Z,19.34
2022-08-14T02:36:05.120Z,19.39
2022-08-14T02:37:05.157Z,19.24
2022-08-14T02:37:58.521Z,19.34
2022-08-14T02:38:57.494Z,19.31
2022-08-14T02:39:57.536Z,19.38
2022-08-14T02:40:57.513Z,19.30
2022-08-14T02:41:57.937Z,19.35
2022-08-14T02:42:57.832Z,19.32
2022-08-14T02:44:00.951Z,19.42
2022-08-14T02:44:57.439Z,19.34
2022-08-14T02:45:57.418Z,19.37
2022-08-14T02:47:01.182Z,19.37
2022-08-14T02:47:57.596Z,19.44
2022-08-14T02:49:03.871Z,19.45
2022-08-14T02:49:58.394Z,19.41
2022-08-14T02:50:57.364Z,19.45
2022-08-14T02:51:57.369Z,19.39
2022-08-14T02:53:03.069Z,19.50
2022-08-14T02:53:58.336Z,19.45
2022-08-14T02:54:57.327Z,19.50
2022-08-14T02:56:03.020Z,19.41
2022-08-14T02:57:14.049Z,19.50
2022-08-14T02:58:03.047Z,19.54
2022-08-14T02:59:00.399Z,19.52
2022-08-14T02:59:57.274Z,19.49
2022-08-14T03:00:57.403Z,19.52
2022-08-14T03:01:57.398Z,19.50
2022-08-14T03:02:59.375Z,19.56
2022-08-14T03:03:57.232Z,19.52
2022-08-14T03:04:57.226Z,19.62
2022-08-14T03:05:57.216Z,19.57
2022-08-14T03:07:07.184Z,19.59
2022-08-14T03:07:58.220Z,19.60
2022-08-14T03:08:57.175Z,19.64
2022-08-14T03:10:25.865Z,19.57
2022-08-14T03:10:58.153Z,19.59
2022-08-14T03:11:57.164Z,19.56
2022-08-14T03:12:57.133Z,19.59
2022-08-14T03:13:59.486Z,19.56
2022-08-14T03:14:57.134Z,19.62
2022-08-14T03:15:57.985Z,19.67
2022-08-14T03:16:57.093Z,19.59
2022-08-14T03:17:58.590Z,19.64
2022-08-14T03:18:57.073Z,19.64
2022-08-14T03:19:57.073Z,19.74
2022-08-14T03:20:57.074Z,19.63
2022-08-14T03:21:57.045Z,19.57
2022-08-14T03:22:57.029Z,19.59
2022-08-14T03:23:57.044Z,19.67
2022-08-14T03:24:57.041Z,19.67
2022-08-14T03:25:57.004Z,19.72
2022-08-14T03:26:57.762Z,19.71
2022-08-14T03:27:58.435Z,19.67
2022-08-14T03:28:56.972Z,19.78
2022-08-14T03:29:56.965Z,19.77
2022-08-14T03:30:56.962Z,19.68
2022-08-14T03:31:56.942Z,19.70
2022-08-14T03:32:56.945Z,19.70
2022-08-14T03:33:56.940Z,19.70
2022-08-14T03:34:58.490Z,19.64
2022-08-14T03:36:05.488Z,19.64
2022-08-14T03:37:51.346Z,19.62
2022-08-14T03:39:12.463Z,19.67
2022-08-14T03:39:13.384Z,19.63
2022-08-14T03:39:57.894Z,19.67
2022-08-14T03:40:56.841Z,19.59
2022-08-14T03:41:59.920Z,19.63
2022-08-14T03:42:57.829Z,19.63
2022-08-14T03:44:00.825Z,19.63
2022-08-14T03:45:26.592Z,19.59
2022-08-14T03:45:57.792Z,19.68
2022-08-14T03:46:56.797Z,19.60
2022-08-14T03:47:58.852Z,19.62
2022-08-14T03:48:57.790Z,19.60
2022-08-14T03:49:58.249Z,19.63
2022-08-14T03:50:56.756Z,19.70
2022-08-14T03:51:57.442Z,19.67
2022-08-14T03:52:57.525Z,19.71
2022-08-14T03:53:56.711Z,19.70
2022-08-14T03:54:56.710Z,19.71
2022-08-14T03:55:56.683Z,19.77
2022-08-14T03:56:56.693Z,19.70
2022-08-14T03:57:56.662Z,19.68
2022-08-14T03:58:56.657Z,19.70
2022-08-14T03:59:56.650Z,19.77
2022-08-14T04:00:56.709Z,19.75
2022-08-14T04:02:01.650Z,19.77
2022-08-14T04:02:57.627Z,19.77
2022-08-14T04:03:56.606Z,19.72
2022-08-14T04:04:56.594Z,19.67
2022-08-14T04:05:57.587Z,19.71
2022-08-14T04:06:58.838Z,19.72
2022-08-14T04:08:08.399Z,19.71
2022-08-14T04:08:58.079Z,19.72
2022-08-14T04:09:56.544Z,19.79
2022-08-14T04:10:56.531Z,19.75
2022-08-14T04:11:57.950Z,19.77
2022-08-14T04:12:56.511Z,19.79
2022-08-14T04:13:57.505Z,19.79
2022-08-14T04:14:56.510Z,19.78
2022-08-14T04:16:02.439Z,19.79
2022-08-14T04:16:57.465Z,19.82
2022-08-14T04:17:56.449Z,19.81
2022-08-14T04:18:56.449Z,19.79
2022-08-14T04:19:56.438Z,19.81
2022-08-14T04:20:56.437Z,19.86
2022-08-14T04:22:03.625Z,19.84
2022-08-14T04:22:57.397Z,19.82
2022-08-14T04:23:57.435Z,19.78
2022-08-14T04:24:56.385Z,19.90
2022-08-14T04:25:56.377Z,19.92
2022-08-14T04:26:56.379Z,19.87
2022-08-14T04:28:02.218Z,19.82
2022-08-14T04:29:07.107Z,19.92
2022-08-14T04:29:57.334Z,19.97
2022-08-14T04:30:56.323Z,19.93
2022-08-14T04:33:00.066Z,19.93
2022-08-14T04:33:05.349Z,19.92
2022-08-14T04:33:57.286Z,19.93
2022-08-14T04:34:56.281Z,20.07
2022-08-14T04:35:57.231Z,20.07
2022-08-14T04:36:56.254Z,20.05
2022-08-14T04:37:56.265Z,20.09
2022-08-14T04:38:56.250Z,19.99
2022-08-14T04:39:57.168Z,20.02
2022-08-14T04:40:56.211Z,19.97
2022-08-14T04:41:56.202Z,20.11
2022-08-14T04:42:56.189Z,20.11
2022-08-14T04:43:56.191Z,20.11
2022-08-14T04:45:01.000Z,20.17
2022-08-14T04:45:57.185Z,20.12
2022-08-14T04:46:57.751Z,20.18
2022-08-14T04:47:56.148Z,20.22
2022-08-14T04:48:59.787Z,20.18
2022-08-14T04:49:56.975Z,20.22
2022-08-14T04:50:56.130Z,20.25
2022-08-14T04:51:56.465Z,20.34
2022-08-14T04:52:56.095Z,20.29
2022-08-14T04:53:56.081Z,20.27
2022-08-14T04:54:56.083Z,20.30
2022-08-14T04:55:56.065Z,20.34
2022-08-14T04:56:56.063Z,20.32
2022-08-14T04:57:56.042Z,20.39
2022-08-14T04:58:56.039Z,20.46
2022-08-14T04:59:56.018Z,20.52
2022-08-14T05:00:56.004Z,20.50
2022-08-14T05:01:57.286Z,20.60
2022-08-14T05:02:55.995Z,20.56
2022-08-14T05:03:55.999Z,20.70
2022-08-14T05:04:57.439Z,20.67
2022-08-14T05:05:55.958Z,20.74
2022-08-14T05:06:55.937Z,20.73
2022-08-14T05:08:01.656Z,20.82
2022-08-14T05:09:00.056Z,20.82
2022-08-14T05:09:55.913Z,20.68
2022-08-14T05:10:55.911Z,20.80
2022-08-14T05:11:55.891Z,20.82
2022-08-14T05:13:21.148Z,20.85
2022-08-14T05:14:17.063Z,20.88
2022-08-14T05:14:56.959Z,20.97
2022-08-14T05:15:55.849Z,21.01
2022-08-14T05:16:55.838Z,21.03
2022-08-14T05:18:03.536Z,21.11
2022-08-14T05:19:26.646Z,21.14
2022-08-14T05:21:04.236Z,21.14
2022-08-14T05:21:56.461Z,21.22
2022-08-14T05:22:01.272Z,21.14
2022-08-14T05:22:56.773Z,21.26
2022-08-14T05:23:55.757Z,21.25
2022-08-14T05:24:55.904Z,21.38
2022-08-14T05:25:55.745Z,21.55
2022-08-14T05:27:04.391Z,21.63
2022-08-14T05:27:55.796Z,21.82
2022-08-14T05:28:55.736Z,21.97
2022-08-14T05:30:04.452Z,22.09
2022-08-14T05:30:55.733Z,22.12
2022-08-14T05:31:57.265Z,22.25
2022-08-14T05:32:55.708Z,22.30
2022-08-14T05:33:56.805Z,22.44
2022-08-14T05:34:55.697Z,22.51
2022-08-14T05:35:55.666Z,22.55
2022-08-14T05:36:58.965Z,22.66
2022-08-14T05:37:56.640Z,22.85
2022-08-14T05:38:55.600Z,22.91
2022-08-14T05:39:55.682Z,22.95
2022-08-14T05:40:55.701Z,23.08
2022-08-14T05:41:55.600Z,23.22
2022-08-14T05:42:55.624Z,23.44
2022-08-14T05:43:55.558Z,23.60
2022-08-14T05:44:56.074Z,23.69
2022-08-14T05:45:55.547Z,23.71
2022-08-14T05:46:55.535Z,23.71
2022-08-14T05:47:55.513Z,23.71
2022-08-14T05:48:55.518Z,23.73
2022-08-14T05:49:55.484Z,23.70
2022-08-14T05:50:55.478Z,23.70
2022-08-14T05:51:55.463Z,23.73
2022-08-14T05:52:55.722Z,23.88
2022-08-14T05:54:00.167Z,23.88
2022-08-14T05:54:56.441Z,24.06
2022-08-14T05:55:55.422Z,24.15
2022-08-14T05:56:55.429Z,24.23
2022-08-14T05:57:57.791Z,24.28
2022-08-14T05:58:55.405Z,24.29
2022-08-14T05:59:55.397Z,24.34
2022-08-14T06:00:55.379Z,24.40
2022-08-14T06:01:55.397Z,24.37
2022-08-14T06:02:55.369Z,24.21
2022-08-14T06:03:55.342Z,24.19
2022-08-14T06:04:55.326Z,24.16
2022-08-14T06:05:55.349Z,24.22
2022-08-14T06:06:55.308Z,24.10
2022-08-14T06:07:55.301Z,24.15
2022-08-14T06:08:55.295Z,24.10
2022-08-14T06:09:55.280Z,24.08
2022-08-14T06:10:55.270Z,24.11
2022-08-14T06:11:55.282Z,24.13
2022-08-14T06:12:57.052Z,24.10
2022-08-14T06:13:55.237Z,23.97
2022-08-14T06:14:55.230Z,24.01
2022-08-14T06:15:55.226Z,24.07
2022-08-14T06:16:55.209Z,24.11
2022-08-14T06:17:59.300Z,24.10
2022-08-14T06:18:55.192Z,24.18
2022-08-14T06:19:55.169Z,24.13
2022-08-14T06:20:55.163Z,24.15
2022-08-14T06:21:59.217Z,24.19
2022-08-14T06:22:55.146Z,24.19
2022-08-14T06:23:55.146Z,24.26
2022-08-14T06:24:55.116Z,24.51
2022-08-14T06:25:55.115Z,24.52
2022-08-14T06:26:56.776Z,24.65
2022-08-14T06:27:56.086Z,24.56
2022-08-14T06:28:55.082Z,24.70
2022-08-14T06:29:55.113Z,24.71
2022-08-14T06:30:55.059Z,24.63
2022-08-14T06:32:00.569Z,24.78
2022-08-14T06:32:56.453Z,24.79
2022-08-14T06:35:02.915Z,24.70
2022-08-14T06:35:03.877Z,24.82
2022-08-14T06:35:56.008Z,24.66
2022-08-14T06:36:55.002Z,24.62
2022-08-14T06:37:55.016Z,24.89
2022-08-14T06:38:54.969Z,24.79
2022-08-14T06:39:55.026Z,24.90
2022-08-14T06:40:54.960Z,24.76
2022-08-14T06:41:58.623Z,24.89
2022-08-14T06:42:54.936Z,24.90
2022-08-14T06:43:54.924Z,24.94
2022-08-14T06:44:54.914Z,24.90
2022-08-14T06:45:54.901Z,24.97
2022-08-14T06:46:54.893Z,24.90
2022-08-14T06:47:54.889Z,24.89
2022-08-14T06:48:54.880Z,24.82
2022-08-14T06:49:58.126Z,24.82
2022-08-14T06:50:54.890Z,24.96
2022-08-14T06:51:54.836Z,24.97
2022-08-14T06:52:54.831Z,25.14
2022-08-14T06:53:54.849Z,25.31
2022-08-14T06:54:54.804Z,25.34
2022-08-14T06:56:00.699Z,25.49
2022-08-14T06:56:57.097Z,25.55
2022-08-14T06:57:54.770Z,25.66
2022-08-14T06:58:54.771Z,25.63
2022-08-14T06:59:54.776Z,25.75
2022-08-14T07:00:54.782Z,25.88
2022-08-14T07:01:56.542Z,25.86
2022-08-14T07:02:54.725Z,25.96
2022-08-14T07:03:54.714Z,25.90
2022-08-14T07:04:54.719Z,25.73
2022-08-14T07:05:55.318Z,25.82
2022-08-14T07:06:58.509Z,25.66
2022-08-14T07:07:54.673Z,25.64
2022-08-14T07:08:54.659Z,25.67
2022-08-14T07:09:54.652Z,25.70
2022-08-14T07:10:54.653Z,25.68
2022-08-14T07:11:56.273Z,25.70
2022-08-14T07:13:03.937Z,25.90
2022-08-14T07:13:55.602Z,25.98
2022-08-14T07:15:01.035Z,25.98
2022-08-14T07:15:55.599Z,26.00
2022-08-14T07:16:54.590Z,26.10
2022-08-14T07:17:54.572Z,26.16
2022-08-14T07:18:54.551Z,26.20
2022-08-14T07:19:54.542Z,26.23
2022-08-14T07:20:54.548Z,26.26
2022-08-14T07:21:54.542Z,26.24
2022-08-14T07:22:56.981Z,26.38
2022-08-14T07:23:54.510Z,26.24
2022-08-14T07:24:54.489Z,26.28
2022-08-14T07:25:54.480Z,26.23
2022-08-14T07:26:54.494Z,26.19
2022-08-14T07:27:54.468Z,26.10
2022-08-14T07:28:54.460Z,25.98
2022-08-14T07:29:54.454Z,26.04
2022-08-14T07:30:54.442Z,26.19
2022-08-14T07:31:54.423Z,26.26
2022-08-14T07:32:54.429Z,26.30
2022-08-14T07:33:54.403Z,26.24
2022-08-14T07:34:54.391Z,26.36
2022-08-14T07:35:58.622Z,26.48
2022-08-14T07:37:00.740Z,26.49
2022-08-14T07:37:55.375Z,26.57
2022-08-14T07:38:54.361Z,26.60
2022-08-14T07:39:54.402Z,26.60
2022-08-14T07:40:54.329Z,26.57
2022-08-14T07:41:54.339Z,26.52
2022-08-14T07:42:54.330Z,26.65
2022-08-14T07:43:55.802Z,26.70
2022-08-14T07:44:54.306Z,26.70
2022-08-14T07:45:54.290Z,26.82
2022-08-14T07:46:54.277Z,26.94
2022-08-14T07:47:54.277Z,27.03
2022-08-14T07:48:54.258Z,26.98
2022-08-14T07:49:55.541Z,26.90
2022-08-14T07:50:59.495Z,26.95
2022-08-14T07:51:55.229Z,26.98
2022-08-14T07:52:54.209Z,26.93
2022-08-14T07:53:57.116Z,27.13
2022-08-14T07:54:54.211Z,27.17
2022-08-14T07:56:00.263Z,27.23
2022-08-14T07:56:56.799Z,27.40
2022-08-14T07:57:54.170Z,27.49
2022-08-14T07:58:54.151Z,27.52
2022-08-14T07:59:54.147Z,27.57
2022-08-14T08:00:56.394Z,27.49
2022-08-14T08:01:54.132Z,27.53
2022-08-14T08:02:55.831Z,27.49
2022-08-14T08:03:57.349Z,27.38
2022-08-14T08:04:59.263Z,27.34
2022-08-14T08:05:54.094Z,27.26
2022-08-14T08:06:54.087Z,27.31
2022-08-14T08:07:54.067Z,27.32
2022-08-14T08:09:01.494Z,27.26
2022-08-14T08:09:55.056Z,27.25
2022-08-14T08:11:03.097Z,27.34
2022-08-14T08:11:57.333Z,27.47
2022-08-14T08:12:54.011Z,27.58
2022-08-14T08:13:54.484Z,27.69
2022-08-14T08:14:55.674Z,27.66
2022-08-14T08:15:53.995Z,27.66
2022-08-14T08:16:53.971Z,27.69
2022-08-14T08:18:01.134Z,27.78
2022-08-14T08:18:59.244Z,27.75
2022-08-14T08:19:54.932Z,27.94
2022-08-14T08:20:53.938Z,27.97
2022-08-14T08:21:54.916Z,28.01
2022-08-14T08:22:55.869Z,28.07
2022-08-14T08:23:53.899Z,28.19
2022-08-14T08:24:53.882Z,28.28
2022-08-14T08:25:53.868Z,28.38
2022-08-14T08:26:53.877Z,28.50
2022-08-14T08:27:53.856Z,28.50
2022-08-14T08:28:53.844Z,28.53
2022-08-14T08:29:53.873Z,28.68
2022-08-14T08:30:53.853Z,28.79
2022-08-14T08:31:53.824Z,28.79
2022-08-14T08:32:53.795Z,28.79
2022-08-14T08:33:53.790Z,28.74
2022-08-14T08:34:53.780Z,28.81
2022-08-14T08:35:53.769Z,28.64
2022-08-14T08:36:53.770Z,28.44
2022-08-14T08:38:01.386Z,28.44
2022-08-14T08:39:18.665Z,28.56
2022-08-14T08:40:03.248Z,28.54
2022-08-14T08:40:54.839Z,28.50
2022-08-14T08:41:54.726Z,28.52
2022-08-14T08:42:53.714Z,28.61
2022-08-14T08:43:53.695Z,28.57
2022-08-14T08:44:53.673Z,28.59
2022-08-14T08:45:53.674Z,28.66
2022-08-14T08:46:53.653Z,28.75
2022-08-14T08:47:53.661Z,28.80
2022-08-14T08:49:23.167Z,28.83
2022-08-14T08:50:31.780Z,28.79
2022-08-14T08:51:23.046Z,28.84
2022-08-14T08:52:24.933Z,28.90
2022-08-14T08:53:23.010Z,28.81
2022-08-14T08:54:26.616Z,28.68
2022-08-14T08:55:24.000Z,28.68
2022-08-14T08:56:30.315Z,28.77
2022-08-14T08:57:24.046Z,28.87
2022-08-14T08:58:25.419Z,28.96
2022-08-14T08:59:31.041Z,29.03
2022-08-14T09:00:25.492Z,28.93
2022-08-14T09:01:22.965Z,28.77
2022-08-14T09:02:22.929Z,28.69
2022-08-14T09:03:22.919Z,28.79
2022-08-14T09:04:22.892Z,29.00
2022-08-14T09:05:22.963Z,29.09
2022-08-14T09:07:01.451Z,29.13
2022-08-14T09:07:23.855Z,29.25
2022-08-14T09:08:30.893Z,29.40
2022-08-14T09:09:23.848Z,29.56
2022-08-14T09:10:22.831Z,29.68
2022-08-14T09:11:22.833Z,29.66
2022-08-14T09:12:22.838Z,29.65
2022-08-14T09:13:22.816Z,29.74
2022-08-14T09:14:22.800Z,29.65
2022-08-14T09:15:22.789Z,29.61
2022-08-14T09:16:23.535Z,29.50
2022-08-14T09:17:25.963Z,29.52
2022-08-14T09:18:22.807Z,29.54
2022-08-14T09:19:22.740Z,29.58
2022-08-14T09:20:29.395Z,29.73
2022-08-14T09:21:23.996Z,29.74
2022-08-14T09:22:35.603Z,29.76
2022-08-14T09:23:27.325Z,29.89
2022-08-14T09:24:29.133Z,29.93
2022-08-14T09:26:01.397Z,30.00
2022-08-14T09:26:23.657Z,30.11
2022-08-14T09:27:23.691Z,29.96
2022-08-14T09:28:22.656Z,29.78
2022-08-14T09:29:23.515Z,29.74
2022-08-14T09:30:32.461Z,29.80
2022-08-14T09:31:23.653Z,29.92
2022-08-14T09:32:57.833Z,30.03
2022-08-14T09:33:23.600Z,30.15
2022-08-14T09:34:27.896Z,30.20
2022-08-14T09:35:23.602Z,30.21
2022-08-14T09:36:22.575Z,30.20
2022-08-14T09:37:22.546Z,30.08
2022-08-14T09:38:26.178Z,30.00
2022-08-14T09:39:23.602Z,29.91
2022-08-14T09:40:22.657Z,29.98
2022-08-14T09:41:22.558Z,29.93
2022-08-14T09:42:32.931Z,30.05
2022-08-14T09:43:23.525Z,29.89
2022-08-14T09:44:22.552Z,29.80
2022-08-14T09:45:22.502Z,29.87
2022-08-14T09:46:25.803Z,29.73
2022-08-14T09:47:22.449Z,29.81
2022-08-14T09:48:30.253Z,29.92
2022-08-14T09:49:23.490Z,30.03
2022-08-14T09:50:25.717Z,30.17
2022-08-14T09:51:22.464Z,30.18
2022-08-14T09:52:32.721Z,30.24
2022-08-14T09:53:23.379Z,30.18
2022-08-14T09:54:23.993Z,29.99
2022-08-14T09:55:22.350Z,29.77
2022-08-14T09:56:30.479Z,29.76
2022-08-14T09:57:23.338Z,29.86
2022-08-14T09:58:23.146Z,29.89
2022-08-14T09:59:22.312Z,30.13
2022-08-14T10:00:30.268Z,30.07
2022-08-14T10:01:24.783Z,30.21
2022-08-14T10:02:22.368Z,30.39
2022-08-14T10:03:22.276Z,30.58
2022-08-14T10:04:34.355Z,30.77
2022-08-14T10:05:23.265Z,30.96
2022-08-14T10:06:22.240Z,30.99
2022-08-14T10:07:22.232Z,31.14
2022-08-14T10:08:26.164Z,31.14
2022-08-14T10:09:22.204Z,31.04
2022-08-14T10:10:23.628Z,31.17
2022-08-14T10:11:23.568Z,31.17
2022-08-14T10:12:28.720Z,31.14
2022-08-14T10:13:23.647Z,31.05
2022-08-14T10:14:35.154Z,30.83
2022-08-14T10:15:23.204Z,30.82
2022-08-14T10:16:27.622Z,30.82
2022-08-14T10:17:23.122Z,30.96
2022-08-14T10:18:22.123Z,30.82
2022-08-14T10:19:22.122Z,30.74
2022-08-14T10:20:40.658Z,30.85
2022-08-14T10:21:23.090Z,30.96
2022-08-14T10:23:14.934Z,30.95
2022-08-14T10:23:23.417Z,30.97
2022-08-14T10:24:22.055Z,30.95
2022-08-14T10:25:22.635Z,30.83
2022-08-14T10:26:23.148Z,30.77
2022-08-14T10:27:23.038Z,30.96
2022-08-14T10:28:39.236Z,31.01
2022-08-14T10:29:23.689Z,31.08
2022-08-14T10:30:22.602Z,31.02
2022-08-14T10:31:25.418Z,31.07
2022-08-14T10:32:29.035Z,31.14
2022-08-14T10:33:22.980Z,31.12
2022-08-14T10:34:29.050Z,31.14
2022-08-14T10:35:23.155Z,31.11
2022-08-14T10:36:34.940Z,31.08
2022-08-14T10:37:23.762Z,31.10
2022-08-14T10:38:22.925Z,31.11
2022-08-14T10:39:21.956Z,31.34
2022-08-14T10:40:44.290Z,31.56
2022-08-14T10:41:22.886Z,31.76
2022-08-14T10:42:22.869Z,31.67
2022-08-14T10:43:23.196Z,31.71
2022-08-14T10:44:22.003Z,31.63
2022-08-14T10:45:22.022Z,31.52
2022-08-14T10:47:40.743Z,31.34
2022-08-14T10:47:41.287Z,31.33
2022-08-14T10:48:24.343Z,31.51
2022-08-14T10:49:23.347Z,31.59
2022-08-14T10:50:21.793Z,31.82
2022-08-14T10:51:21.773Z,31.84
2022-08-14T10:52:21.999Z,31.71
2022-08-14T10:53:21.771Z,31.66
2022-08-14T10:54:35.825Z,31.76
2022-08-14T10:55:22.743Z,31.78
2022-08-14T10:56:34.063Z,31.63
2022-08-14T10:57:22.711Z,31.64
2022-08-14T10:58:21.707Z,31.89
2022-08-14T10:59:21.712Z,31.81
2022-08-14T11:00:29.797Z,31.84
2022-08-14T11:01:22.667Z,32.01
2022-08-14T11:02:35.874Z,32.09
2022-08-14T11:03:36.139Z,32.08
2022-08-14T11:04:26.215Z,32.21
2022-08-14T11:05:21.635Z,32.20
2022-08-14T11:06:21.621Z,32.24
2022-08-14T11:07:21.646Z,32.39
2022-08-14T11:08:21.613Z,32.57
2022-08-14T11:09:21.583Z,32.73
2022-08-14T11:10:21.572Z,32.64
2022-08-14T11:11:21.570Z,32.54
2022-08-14T11:12:39.982Z,32.55
2022-08-14T11:13:24.173Z,32.58
2022-08-14T11:14:22.798Z,32.88
2022-08-14T11:15:21.521Z,33.12
2022-08-14T11:16:21.519Z,32.97
2022-08-14T11:17:21.875Z,32.88
2022-08-14T11:18:30.062Z,32.91
2022-08-14T11:19:24.302Z,32.98
2022-08-14T11:20:21.481Z,33.06
2022-08-14T11:21:21.494Z,32.92
2022-08-14T11:22:52.764Z,32.77
2022-08-14T11:23:22.448Z,32.90
2022-08-14T11:24:50.478Z,32.90
2022-08-14T11:25:22.428Z,32.85
2022-08-14T11:26:21.418Z,32.87
2022-08-14T11:27:23.722Z,32.95
2022-08-14T11:28:48.144Z,33.20
2022-08-14T11:29:22.379Z,33.12
2022-08-14T11:30:51.406Z,32.87
2022-08-14T11:31:22.433Z,32.53
2022-08-14T11:32:29.018Z,32.35
2022-08-14T11:33:21.391Z,32.16
2022-08-14T11:34:31.973Z,32.20
2022-08-14T11:35:21.331Z,32.09
2022-08-14T11:36:21.318Z,31.95
2022-08-14T11:37:33.906Z,32.05
2022-08-14T11:38:22.309Z,32.13
2022-08-14T11:39:33.703Z,32.23
2022-08-14T11:40:24.360Z,32.35
2022-08-14T11:41:22.283Z,32.38
2022-08-14T11:42:57.192Z,32.51
2022-08-14T11:43:29.129Z,32.61
2022-08-14T11:44:45.814Z,32.76
2022-08-14T11:45:23.128Z,33.01
2022-08-14T11:46:30.247Z,33.04
2022-08-14T11:47:22.239Z,33.04
2022-08-14T11:49:04.168Z,32.94
2022-08-14T11:49:22.284Z,32.57
2022-08-14T11:50:33.515Z,32.55
2022-08-14T11:51:24.192Z,32.45
2022-08-14T11:52:21.587Z,32.42
2022-08-14T11:53:21.144Z,32.55
2022-08-14T11:54:33.942Z,32.63
2022-08-14T11:55:25.501Z,32.73
2022-08-14T11:56:25.320Z,32.85
2022-08-14T11:57:22.900Z,32.51
2022-08-14T11:58:24.399Z,32.60
2022-08-14T11:59:26.209Z,32.55
2022-08-14T12:00:22.085Z,32.43
2022-08-14T12:01:22.052Z,32.54
2022-08-14T12:03:01.213Z,32.50
2022-08-14T12:03:27.053Z,32.73
2022-08-14T12:04:33.431Z,32.76
2022-08-14T12:05:22.031Z,32.98
2022-08-14T12:06:28.105Z,33.10
2022-08-14T12:07:22.000Z,33.14
2022-08-14T12:08:24.633Z,33.24
2022-08-14T12:09:22.051Z,33.20
2022-08-14T12:10:26.337Z,33.42
2022-08-14T12:11:21.956Z,33.37
2022-08-14T12:12:35.977Z,33.66
2022-08-14T12:13:22.371Z,33.70
2022-08-14T12:14:34.765Z,33.74
2022-08-14T12:15:21.912Z,33.85
2022-08-14T12:16:22.795Z,33.73
2022-08-14T12:17:23.959Z,33.63
2022-08-14T12:18:20.917Z,33.60
2022-08-14T12:19:20.876Z,33.39
2022-08-14T12:20:29.967Z,33.51
2022-08-14T12:21:21.847Z,33.71
2022-08-14T12:22:29.897Z,33.79
2022-08-14T12:23:21.838Z,33.74
2022-08-14T12:24:35.644Z,33.74
2022-08-14T12:25:21.810Z,33.73
2022-08-14T12:26:39.048Z,33.69
2022-08-14T12:27:25.095Z,33.71
2022-08-14T12:28:26.986Z,33.64
2022-08-14T12:29:21.787Z,33.69
2022-08-14T12:30:21.226Z,33.98
2022-08-14T12:31:20.900Z,34.06
2022-08-14T12:32:20.740Z,34.13
2022-08-14T12:33:20.730Z,33.98
2022-08-14T12:34:24.262Z,33.84
2022-08-14T12:35:20.709Z,34.01
2022-08-14T12:36:20.891Z,34.10
2022-08-14T12:37:20.696Z,34.22
2022-08-14T12:38:21.240Z,34.22
2022-08-14T12:39:21.036Z,34.19
2022-08-14T12:40:21.130Z,33.93
2022-08-14T12:41:21.819Z,33.58
2022-08-14T12:42:27.418Z,33.33
2022-08-14T12:43:21.637Z,33.24
2022-08-14T12:44:20.643Z,33.16
2022-08-14T12:45:20.609Z,33.04
2022-08-14T12:46:22.574Z,32.91
2022-08-14T12:47:21.594Z,32.80
2022-08-14T12:48:31.466Z,32.75
2022-08-14T12:49:21.577Z,32.82
2022-08-14T12:50:20.569Z,32.75
2022-08-14T12:51:21.776Z,32.65
2022-08-14T12:52:30.654Z,32.73
2022-08-14T12:53:22.123Z,32.95